sensor_id;sensor_type;location;lat;lon;timestamp;pressure;altitude;pressure_sealevel;temperature;humidity
65280;BME280;51878;55.748;48.742;2023-04-28T00:03:17;98827.66;;;10.90;100.00
65280;BME280;51878;55.748;48.742;2023-04-28T00:08:20;98888.28;;;11.30;100.00
65280;BME280;51878;55.748;48.742;2023-04-28T00:13:24;98905.00;;;11.27;100.00
65280;BME280;51878;55.748;48.742;2023-04-28T00:18:26;98937.59;;;11.47;100.00
65280;BME280;51878;55.748;48.742;2023-04-28T00:23:29;98741.25;;;10.12;100.00
65280;BME280;51878;55.748;48.742;2023-04-28T00:28:32;98957.16;;;11.23;100.00
65280;BME280;51878;55.748;48.742;2023-04-28T00:33:35;98885.78;;;10.67;100.00
65280;BME280;51878;55.748;48.742;2023-04-28T00:38:38;98886.59;;;10.61;100.00
65280;BME280;51878;55.748;48.742;2023-04-28T00:43:49;98754.59;;;9.79;100.00
65280;BME280;51878;55.748;48.742;2023-04-28T00:48:51;98911.03;;;10.74;100.00
65280;BME280;51878;55.748;48.742;2023-04-28T00:53:54;98893.66;;;10.62;100.00
65280;BME280;51878;55.748;48.742;2023-04-28T00:58:57;98903.56;;;10.77;100.00
65280;BME280;51878;55.748;48.742;2023-04-28T01:03:59;98837.06;;;10.39;100.00
65280;BME280;51878;55.748;48.742;2023-04-28T01:09:02;98941.63;;;11.03;100.00
65280;BME280;51878;55.748;48.742;2023-04-28T01:14:06;98916.13;;;10.91;100.00
65280;BME280;51878;55.748;48.742;2023-04-28T01:19:15;98844.16;;;10.47;100.00
65280;BME280;51878;55.748;48.742;2023-04-28T01:24:18;98866.72;;;10.47;100.00
65280;BME280;51878;55.748;48.742;2023-04-28T01:29:20;98850.56;;;10.32;100.00
65280;BME280;51878;55.748;48.742;2023-04-28T01:34:22;98905.72;;;10.53;100.00
65280;BME280;51878;55.748;48.742;2023-04-28T01:39:24;98811.19;;;9.73;100.00
65280;BME280;51878;55.748;48.742;2023-04-28T01:44:27;98948.22;;;10.46;100.00
65280;BME280;51878;55.748;48.742;2023-04-28T01:49:29;98940.72;;;10.48;100.00
65280;BME280;51878;55.748;48.742;2023-04-28T01:54:31;98948.28;;;10.59;100.00
65280;BME280;51878;55.748;48.742;2023-04-28T01:59:33;98910.72;;;10.49;100.00
65280;BME280;51878;55.748;48.742;2023-04-28T02:04:39;98908.03;;;10.56;100.00
65280;BME280;51878;55.748;48.742;2023-04-28T02:09:41;98917.88;;;10.64;100.00
65280;BME280;51878;55.748;48.742;2023-04-28T02:14:44;98991.50;;;11.02;100.00
65280;BME280;51878;55.748;48.742;2023-04-28T02:19:46;98916.84;;;10.71;100.00
65280;BME280;51878;55.748;48.742;2023-04-28T02:24:51;98966.88;;;11.04;100.00
65280;BME280;51878;55.748;48.742;2023-04-28T02:29:53;98941.59;;;10.96;100.00
65280;BME280;51878;55.748;48.742;2023-04-28T02:34:55;98796.25;;;10.12;100.00
65280;BME280;51878;55.748;48.742;2023-04-28T02:39:57;99003.59;;;11.48;100.00
65280;BME280;51878;55.748;48.742;2023-04-28T02:45:00;99011.59;;;11.63;100.00
65280;BME280;51878;55.748;48.742;2023-04-28T02:50:06;99013.91;;;11.72;100.00
65280;BME280;51878;55.748;48.742;2023-04-28T02:55:09;98981.25;;;11.52;100.00
65280;BME280;51878;55.748;48.742;2023-04-28T03:00:11;98984.63;;;11.61;100.00
65280;BME280;51878;55.748;48.742;2023-04-28T03:05:14;99005.56;;;11.74;100.00
65280;BME280;51878;55.748;48.742;2023-04-28T03:10:16;98972.94;;;11.61;100.00
65280;BME280;51878;55.748;48.742;2023-04-28T03:15:21;99020.59;;;11.83;100.00
65280;BME280;51878;55.748;48.742;2023-04-28T03:20:25;98983.63;;;11.69;100.00
65280;BME280;51878;55.748;48.742;2023-04-28T03:25:27;98915.41;;;11.24;100.00
65280;BME280;51878;55.748;48.742;2023-04-28T03:30:29;98959.56;;;11.59;100.00
65280;BME280;51878;55.748;48.742;2023-04-28T03:35:31;99012.06;;;11.86;100.00
65280;BME280;51878;55.748;48.742;2023-04-28T03:40:34;99045.16;;;12.10;100.00
65280;BME280;51878;55.748;48.742;2023-04-28T03:45:36;98978.38;;;11.74;100.00
65280;BME280;51878;55.748;48.742;2023-04-28T03:50:39;99043.91;;;12.19;100.00
65280;BME280;51878;55.748;48.742;2023-04-28T03:55:43;99072.16;;;12.45;100.00
65280;BME280;51878;55.748;48.742;2023-04-28T04:00:45;99046.44;;;12.34;100.00
65280;BME280;51878;55.748;48.742;2023-04-28T04:05:48;99076.78;;;12.64;100.00
65280;BME280;51878;55.748;48.742;2023-04-28T04:10:50;99021.97;;;12.34;100.00
65280;BME280;51878;55.748;48.742;2023-04-28T04:15:53;99074.25;;;12.76;100.00
65280;BME280;51878;55.748;48.742;2023-04-28T04:20:55;99079.91;;;12.88;100.00
65280;BME280;51878;55.748;48.742;2023-04-28T04:26:00;99079.03;;;13.00;100.00
65280;BME280;51878;55.748;48.742;2023-04-28T04:31:02;99035.75;;;12.86;100.00
65280;BME280;51878;55.748;48.742;2023-04-28T04:42:50;99006.66;;;12.86;100.00
65280;BME280;51878;55.748;48.742;2023-04-28T04:47:52;99021.41;;;13.23;100.00
65280;BME280;51878;55.748;48.742;2023-04-28T04:52:54;99082.66;;;13.66;100.00
65280;BME280;51878;55.748;48.742;2023-04-28T04:57:59;99105.38;;;13.98;100.00
65280;BME280;51878;55.748;48.742;2023-04-28T05:03:04;99000.56;;;13.56;99.39
65280;BME280;51878;55.748;48.742;2023-04-28T05:08:19;99038.56;;;13.89;93.81
65280;BME280;51878;55.748;48.742;2023-04-28T05:13:21;99091.25;;;14.46;92.95
65280;BME280;51878;55.748;48.742;2023-04-28T05:18:24;99075.72;;;14.47;89.26
65280;BME280;51878;55.748;48.742;2023-04-28T05:23:26;99102.81;;;14.74;88.40
65280;BME280;51878;55.748;48.742;2023-04-28T05:28:29;99132.16;;;15.03;84.44
65280;BME280;51878;55.748;48.742;2023-04-28T05:33:32;99077.59;;;14.78;81.68
65280;BME280;51878;55.748;48.742;2023-04-28T05:38:34;98978.44;;;14.34;81.19
65280;BME280;51878;55.748;48.742;2023-04-28T05:43:36;99111.53;;;15.33;77.76
65280;BME280;51878;55.748;48.742;2023-04-28T05:48:39;99107.56;;;15.47;76.86
65280;BME280;51878;55.748;48.742;2023-04-28T05:53:43;99022.72;;;15.23;73.87
65280;BME280;51878;55.748;48.742;2023-04-28T05:58:49;99076.47;;;15.66;72.52
65280;BME280;51878;55.748;48.742;2023-04-28T06:03:52;99091.41;;;16.01;69.70
65280;BME280;51878;55.748;48.742;2023-04-28T06:08:55;99112.47;;;16.42;67.78
65280;BME280;51878;55.748;48.742;2023-04-28T06:13:57;98999.88;;;16.03;64.21
65280;BME280;51878;55.748;48.742;2023-04-28T06:19:01;99101.59;;;16.66;63.15
65280;BME280;51878;55.748;48.742;2023-04-28T06:24:04;99144.56;;;17.07;61.56
65280;BME280;51878;55.748;48.742;2023-04-28T06:29:06;99058.06;;;16.76;59.65
65280;BME280;51878;55.748;48.742;2023-04-28T06:34:09;98966.88;;;16.64;57.10
65280;BME280;51878;55.748;48.742;2023-04-28T06:39:12;99118.31;;;17.82;56.03
65280;BME280;51878;55.748;48.742;2023-04-28T06:44:15;99074.59;;;18.04;55.79
65280;BME280;51878;55.748;48.742;2023-04-28T06:49:17;99124.13;;;18.55;53.59
65280;BME280;51878;55.748;48.742;2023-04-28T06:54:19;99039.69;;;18.16;52.24
65280;BME280;51878;55.748;48.742;2023-04-28T06:59:22;99092.28;;;18.71;51.40
65280;BME280;51878;55.748;48.742;2023-04-28T07:04:24;99135.13;;;19.01;51.43
65280;BME280;51878;55.748;48.742;2023-04-28T07:09:27;99067.41;;;18.77;50.37
65280;BME280;51878;55.748;48.742;2023-04-28T07:14:31;99148.41;;;19.43;48.08
65280;BME280;51878;55.748;48.742;2023-04-28T07:19:33;99100.28;;;19.23;48.29
65280;BME280;51878;55.748;48.742;2023-04-28T07:24:35;99121.06;;;19.53;46.05
65280;BME280;51878;55.748;48.742;2023-04-28T07:29:37;99109.34;;;19.79;45.70
65280;BME280;51878;55.748;48.742;2023-04-28T07:34:39;99133.28;;;20.50;45.22
65280;BME280;51878;55.748;48.742;2023-04-28T07:39:41;99113.69;;;20.47;44.97
65280;BME280;51878;55.748;48.742;2023-04-28T07:44:44;99078.34;;;20.98;44.53
65280;BME280;51878;55.748;48.742;2023-04-28T07:49:46;99144.16;;;21.21;43.12
65280;BME280;51878;55.748;48.742;2023-04-28T07:54:48;99099.13;;;21.48;43.37
65280;BME280;51878;55.748;48.742;2023-04-28T07:59:51;99113.28;;;21.62;42.38
65280;BME280;51878;55.748;48.742;2023-04-28T08:04:53;99101.31;;;21.99;42.06
65280;BME280;51878;55.748;48.742;2023-04-28T08:09:56;99131.91;;;22.81;40.37
65280;BME280;51878;55.748;48.742;2023-04-28T08:14:58;99118.94;;;23.38;38.45
65280;BME280;51878;55.748;48.742;2023-04-28T08:20:00;99129.75;;;23.14;38.44
65280;BME280;51878;55.748;48.742;2023-04-28T08:25:05;99077.53;;;21.98;40.61
65280;BME280;51878;55.748;48.742;2023-04-28T08:30:08;99045.34;;;22.24;39.03
65280;BME280;51878;55.748;48.742;2023-04-28T08:35:10;99062.19;;;22.38;38.60
65280;BME280;51878;55.748;48.742;2023-04-28T08:40:13;99100.41;;;22.72;39.65
65280;BME280;51878;55.748;48.742;2023-04-28T08:45:16;99072.47;;;22.99;38.10
65280;BME280;51878;55.748;48.742;2023-04-28T08:50:20;99065.03;;;24.00;37.51
65280;BME280;51878;55.748;48.742;2023-04-28T08:55:24;99102.53;;;23.77;36.64
65280;BME280;51878;55.748;48.742;2023-04-28T09:00:27;99097.56;;;23.64;36.73
65280;BME280;51878;55.748;48.742;2023-04-28T09:05:29;99086.88;;;24.12;35.31
65280;BME280;51878;55.748;48.742;2023-04-28T09:10:31;99045.25;;;23.52;35.49
65280;BME280;51878;55.748;48.742;2023-04-28T09:20:37;99069.16;;;24.08;34.86
65280;BME280;51878;55.748;48.742;2023-04-28T09:25:39;99095.66;;;24.24;34.57
65280;BME280;51878;55.748;48.742;2023-04-28T09:30:41;99086.56;;;24.98;34.00
65280;BME280;51878;55.748;48.742;2023-04-28T09:35:44;99078.78;;;25.34;32.93
65280;BME280;51878;55.748;48.742;2023-04-28T09:40:58;99101.22;;;24.69;33.82
65280;BME280;51878;55.748;48.742;2023-04-28T09:46:02;99076.53;;;24.28;34.43
65280;BME280;51878;55.748;48.742;2023-04-28T09:51:07;99029.66;;;24.71;32.96
65280;BME280;51878;55.748;48.742;2023-04-28T09:56:12;99059.41;;;25.77;31.39
65280;BME280;51878;55.748;48.742;2023-04-28T10:01:14;99108.91;;;25.46;31.71
65280;BME280;51878;55.748;48.742;2023-04-28T10:06:17;99089.59;;;24.67;32.56
65280;BME280;51878;55.748;48.742;2023-04-28T10:11:20;99037.66;;;24.78;34.35
65280;BME280;51878;55.748;48.742;2023-04-28T10:16:23;99013.63;;;26.69;30.82
65280;BME280;51878;55.748;48.742;2023-04-28T10:21:28;99035.69;;;28.59;27.82
65280;BME280;51878;55.748;48.742;2023-04-28T10:32:16;99093.47;;;30.55;24.58
65280;BME280;51878;55.748;48.742;2023-04-28T10:37:18;99084.41;;;29.43;24.77
65280;BME280;51878;55.748;48.742;2023-04-28T10:42:53;99111.25;;;28.63;24.95
65280;BME280;51878;55.748;48.742;2023-04-28T10:48:01;99075.88;;;27.25;27.29
65280;BME280;51878;55.748;48.742;2023-04-28T10:53:05;99062.94;;;26.83;27.69
65280;BME280;51878;55.748;48.742;2023-04-28T11:08:39;99077.13;;;24.64;31.02
65280;BME280;51878;55.748;48.742;2023-04-28T11:13:43;99039.00;;;23.96;32.04
65280;BME280;51878;55.748;48.742;2023-04-28T11:18:59;99044.94;;;23.79;32.48
65280;BME280;51878;55.748;48.742;2023-04-28T11:24:10;99031.47;;;24.07;32.17
65280;BME280;51878;55.748;48.742;2023-04-28T11:29:12;99028.38;;;26.51;29.67
65280;BME280;51878;55.748;48.742;2023-04-28T11:34:19;99084.78;;;29.19;25.37
65280;BME280;51878;55.748;48.742;2023-04-28T11:39:27;99071.63;;;28.97;25.53
65280;BME280;51878;55.748;48.742;2023-04-28T11:44:30;99063.59;;;27.26;27.49
65280;BME280;51878;55.748;48.742;2023-04-28T11:49:43;99082.34;;;26.31;29.21
65280;BME280;51878;55.748;48.742;2023-04-28T11:54:55;99057.50;;;25.48;30.90
65280;BME280;51878;55.748;48.742;2023-04-28T12:00:13;99028.69;;;25.44;30.32
65280;BME280;51878;55.748;48.742;2023-04-28T12:05:16;98975.41;;;25.18;30.02
65280;BME280;51878;55.748;48.742;2023-04-28T12:10:18;99003.91;;;24.31;31.23
65280;BME280;51878;55.748;48.742;2023-04-28T12:15:21;98992.28;;;23.84;31.51
65280;BME280;51878;55.748;48.742;2023-04-28T12:20:36;98983.25;;;23.58;31.44
65280;BME280;51878;55.748;48.742;2023-04-28T12:25:43;98982.75;;;24.01;31.70
65280;BME280;51878;55.748;48.742;2023-04-28T12:30:46;99032.09;;;24.43;31.41
65280;BME280;51878;55.748;48.742;2023-04-28T12:35:48;98974.09;;;26.02;30.00
65280;BME280;51878;55.748;48.742;2023-04-28T12:40:51;99003.03;;;29.45;25.49
65280;BME280;51878;55.748;48.742;2023-04-28T12:45:54;99009.53;;;32.26;21.93
65280;BME280;51878;55.748;48.742;2023-04-28T12:50:59;98972.63;;;32.58;19.79
65280;BME280;51878;55.748;48.742;2023-04-28T12:56:01;98996.63;;;34.36;19.34
65280;BME280;51878;55.748;48.742;2023-04-28T13:01:04;98982.63;;;34.80;17.76
65280;BME280;51878;55.748;48.742;2023-04-28T13:06:06;99021.53;;;34.22;18.68
65280;BME280;51878;55.748;48.742;2023-04-28T13:11:09;98993.25;;;34.71;18.63
65280;BME280;51878;55.748;48.742;2023-04-28T13:16:23;98962.59;;;34.69;18.11
65280;BME280;51878;55.748;48.742;2023-04-28T13:21:26;98948.25;;;32.28;19.37
65280;BME280;51878;55.748;48.742;2023-04-28T13:26:29;98953.88;;;31.18;20.48
65280;BME280;51878;55.748;48.742;2023-04-28T13:31:32;98963.19;;;33.08;19.52
65280;BME280;51878;55.748;48.742;2023-04-28T13:36:34;98991.13;;;33.04;20.31
65280;BME280;51878;55.748;48.742;2023-04-28T13:41:37;98970.56;;;34.11;19.60
65280;BME280;51878;55.748;48.742;2023-04-28T13:46:39;98962.09;;;34.95;17.35
65280;BME280;51878;55.748;48.742;2023-04-28T13:51:41;99018.63;;;35.47;17.84
65280;BME280;51878;55.748;48.742;2023-04-28T13:56:43;98998.19;;;36.01;17.60
65280;BME280;51878;55.748;48.742;2023-04-28T14:01:45;98942.44;;;34.83;18.44
65280;BME280;51878;55.748;48.742;2023-04-28T14:06:48;98938.53;;;34.72;18.29
65280;BME280;51878;55.748;48.742;2023-04-28T14:11:51;98941.09;;;35.09;18.15
65280;BME280;51878;55.748;48.742;2023-04-28T14:16:53;98962.00;;;34.92;18.08
65280;BME280;51878;55.748;48.742;2023-04-28T14:21:55;98942.72;;;34.22;18.75
65280;BME280;51878;55.748;48.742;2023-04-28T14:26:57;98959.22;;;33.58;19.19
65280;BME280;51878;55.748;48.742;2023-04-28T14:31:59;98938.91;;;32.37;20.45
65280;BME280;51878;55.748;48.742;2023-04-28T14:37:02;98989.28;;;31.61;21.50
65280;BME280;51878;55.748;48.742;2023-04-28T14:42:04;98985.72;;;31.52;21.71
65280;BME280;51878;55.748;48.742;2023-04-28T14:47:07;98797.00;;;29.85;22.08
65280;BME280;51878;55.748;48.742;2023-04-28T14:52:10;98973.00;;;30.43;22.64
65280;BME280;51878;55.748;48.742;2023-04-28T14:57:12;98981.97;;;29.96;23.28
65280;BME280;51878;55.748;48.742;2023-04-28T15:02:14;98998.00;;;29.16;24.32
65280;BME280;51878;55.748;48.742;2023-04-28T15:07:17;98981.59;;;27.88;24.95
65280;BME280;51878;55.748;48.742;2023-04-28T15:12:20;98874.38;;;26.00;27.08
65280;BME280;51878;55.748;48.742;2023-04-28T15:17:23;98955.28;;;25.31;28.47
65280;BME280;51878;55.748;48.742;2023-04-28T15:22:25;98919.78;;;23.72;30.86
65280;BME280;51878;55.748;48.742;2023-04-28T15:27:28;98938.41;;;22.76;31.69
65280;BME280;51878;55.748;48.742;2023-04-28T15:32:30;98929.25;;;21.73;33.24
65280;BME280;51878;55.748;48.742;2023-04-28T15:42:38;98957.13;;;20.66;35.62
65280;BME280;51878;55.748;48.742;2023-04-28T15:47:44;98949.03;;;20.16;36.34
65280;BME280;51878;55.748;48.742;2023-04-28T15:52:47;99003.34;;;19.99;37.62
65280;BME280;51878;55.748;48.742;2023-04-28T15:57:51;98990.53;;;19.60;38.25
65280;BME280;51878;55.748;48.742;2023-04-28T16:02:53;99006.75;;;19.40;39.34
65280;BME280;51878;55.748;48.742;2023-04-28T16:07:55;99015.38;;;19.27;40.27
65280;BME280;51878;55.748;48.742;2023-04-28T16:12:58;98995.41;;;18.92;40.73
65280;BME280;51878;55.748;48.742;2023-04-28T16:18:00;98984.28;;;18.65;41.50
65280;BME280;51878;55.748;48.742;2023-04-28T16:23:05;99022.72;;;18.65;41.42
65280;BME280;51878;55.748;48.742;2023-04-28T16:28:08;99038.50;;;18.41;43.44
65280;BME280;51878;55.748;48.742;2023-04-28T16:33:10;98964.03;;;17.75;44.42
65280;BME280;51878;55.748;48.742;2023-04-28T16:38:12;99011.13;;;17.84;47.30
65280;BME280;51878;55.748;48.742;2023-04-28T16:43:14;99075.44;;;18.05;49.07
65280;BME280;51878;55.748;48.742;2023-04-28T16:48:17;99055.69;;;17.91;49.17
65280;BME280;51878;55.748;48.742;2023-04-28T16:53:21;99028.69;;;17.59;50.77
65280;BME280;51878;55.748;48.742;2023-04-28T16:58:26;99015.66;;;17.38;52.67
65280;BME280;51878;55.748;48.742;2023-04-28T17:03:28;99038.78;;;17.30;55.05
65280;BME280;51878;55.748;48.742;2023-04-28T17:08:31;99097.22;;;17.59;55.55
65280;BME280;51878;55.748;48.742;2023-04-28T17:13:33;99097.09;;;17.66;55.14
65280;BME280;51878;55.748;48.742;2023-04-28T17:18:36;99066.38;;;17.52;55.46
65280;BME280;51878;55.748;48.742;2023-04-28T17:23:39;99068.03;;;17.65;55.00
65280;BME280;51878;55.748;48.742;2023-04-28T17:28:41;99035.03;;;17.60;55.45
65280;BME280;51878;55.748;48.742;2023-04-28T17:33:44;99069.66;;;17.77;56.15
65280;BME280;51878;55.748;48.742;2023-04-28T17:38:47;99075.75;;;17.80;55.59
65280;BME280;51878;55.748;48.742;2023-04-28T17:43:49;99051.81;;;17.63;55.11
65280;BME280;51878;55.748;48.742;2023-04-28T17:48:57;98999.34;;;17.31;54.47
65280;BME280;51878;55.748;48.742;2023-04-28T17:54:00;99057.88;;;17.65;54.60
65280;BME280;51878;55.748;48.742;2023-04-28T17:59:03;99013.66;;;17.33;54.54
65280;BME280;51878;55.748;48.742;2023-04-28T18:04:08;99073.28;;;17.54;54.57
65280;BME280;51878;55.748;48.742;2023-04-28T18:09:10;99045.44;;;17.34;54.88
65280;BME280;51878;55.748;48.742;2023-04-28T18:14:13;98969.34;;;16.77;55.43
65280;BME280;51878;55.748;48.742;2023-04-28T18:19:19;98905.13;;;16.21;55.56
65280;BME280;51878;55.748;48.742;2023-04-28T18:24:22;99066.06;;;17.13;55.56
65280;BME280;51878;55.748;48.742;2023-04-28T18:29:24;99056.78;;;17.02;55.47
65280;BME280;51878;55.748;48.742;2023-04-28T18:34:27;99048.22;;;16.99;55.86
65280;BME280;51878;55.748;48.742;2023-04-28T18:39:29;99031.91;;;16.92;55.93
65280;BME280;51878;55.748;48.742;2023-04-28T18:44:31;99052.25;;;17.08;55.66
65280;BME280;51878;55.748;48.742;2023-04-28T18:49:33;99032.50;;;16.94;55.49
65280;BME280;51878;55.748;48.742;2023-04-28T18:54:35;99041.91;;;16.98;55.86
65280;BME280;51878;55.748;48.742;2023-04-28T18:59:37;99029.00;;;16.75;56.44
65280;BME280;51878;55.748;48.742;2023-04-28T19:04:39;99029.00;;;16.75;56.20
65280;BME280;51878;55.748;48.742;2023-04-28T19:09:43;98869.44;;;15.62;56.00
65280;BME280;51878;55.748;48.742;2023-04-28T19:14:46;98997.31;;;16.32;56.21
65280;BME280;51878;55.748;48.742;2023-04-28T19:19:48;99030.38;;;16.42;56.72
65280;BME280;51878;55.748;48.742;2023-04-28T19:24:52;99068.25;;;16.57;56.84
65280;BME280;51878;55.748;48.742;2023-04-28T19:29:54;99023.56;;;16.21;57.48
65280;BME280;51878;55.748;48.742;2023-04-28T19:34:56;99042.34;;;16.18;58.19
65280;BME280;51878;55.748;48.742;2023-04-28T19:39:58;99055.38;;;16.04;59.93
65280;BME280;51878;55.748;48.742;2023-04-28T19:45:01;99046.28;;;15.91;60.98
65280;BME280;51878;55.748;48.742;2023-04-28T19:50:06;99052.94;;;15.84;63.46
65280;BME280;51878;55.748;48.742;2023-04-28T19:55:09;99096.19;;;15.87;65.58
65280;BME280;51878;55.748;48.742;2023-04-28T20:00:12;99005.44;;;15.11;66.48
65280;BME280;51878;55.748;48.742;2023-04-28T20:05:14;99006.97;;;15.07;67.80
65280;BME280;51878;55.748;48.742;2023-04-28T20:10:17;99079.56;;;15.33;68.81
65280;BME280;51878;55.748;48.742;2023-04-28T20:15:21;99016.88;;;14.83;69.24
65280;BME280;51878;55.748;48.742;2023-04-28T20:20:23;99071.25;;;15.03;69.98
65280;BME280;51878;55.748;48.742;2023-04-28T20:25:26;99100.19;;;15.11;71.25
65280;BME280;51878;55.748;48.742;2023-04-28T20:30:28;99004.94;;;14.27;74.26
65280;BME280;51878;55.748;48.742;2023-04-28T20:35:31;99101.31;;;14.78;75.25
65280;BME280;51878;55.748;48.742;2023-04-28T20:40:33;98996.97;;;14.00;77.00
65280;BME280;51878;55.748;48.742;2023-04-28T20:45:39;99004.81;;;13.83;79.24
65280;BME280;51878;55.748;48.742;2023-04-28T20:50:43;99001.50;;;13.75;80.14
65280;BME280;51878;55.748;48.742;2023-04-28T20:55:46;99017.88;;;13.75;82.66
65280;BME280;51878;55.748;48.742;2023-04-28T21:00:49;99077.66;;;14.01;84.46
65280;BME280;51878;55.748;48.742;2023-04-28T21:05:52;99051.69;;;13.60;88.60
65280;BME280;51878;55.748;48.742;2023-04-28T21:10:54;99086.44;;;13.72;89.75
65280;BME280;51878;55.748;48.742;2023-04-28T21:15:56;99064.72;;;13.52;90.98
65280;BME280;51878;55.748;48.742;2023-04-28T21:20:59;98973.19;;;12.86;91.45
65280;BME280;51878;55.748;48.742;2023-04-28T21:26:02;99001.81;;;12.95;94.04
65280;BME280;51878;55.748;48.742;2023-04-28T21:31:05;99045.34;;;13.01;95.91
65280;BME280;51878;55.748;48.742;2023-04-28T21:36:08;99053.50;;;13.01;96.09
65280;BME280;51878;55.748;48.742;2023-04-28T21:41:11;98981.41;;;12.46;98.35
65280;BME280;51878;55.748;48.742;2023-04-28T21:46:14;98997.50;;;12.47;99.68
65280;BME280;51878;55.748;48.742;2023-04-28T21:51:16;98969.47;;;12.20;100.00
65280;BME280;51878;55.748;48.742;2023-04-28T21:56:19;98967.78;;;12.12;100.00
65280;BME280;51878;55.748;48.742;2023-04-28T22:01:22;99044.13;;;12.71;100.00
65280;BME280;51878;55.748;48.742;2023-04-28T22:06:24;99025.31;;;12.56;100.00
65280;BME280;51878;55.748;48.742;2023-04-28T22:11:27;98957.56;;;12.08;100.00
65280;BME280;51878;55.748;48.742;2023-04-28T22:16:29;99004.38;;;12.50;99.46
65280;BME280;51878;55.748;48.742;2023-04-28T22:21:32;99061.28;;;12.85;99.06
65280;BME280;51878;55.748;48.742;2023-04-28T22:26:34;99004.81;;;12.47;98.85
65280;BME280;51878;55.748;48.742;2023-04-28T22:31:37;99072.34;;;12.83;99.24
65280;BME280;51878;55.748;48.742;2023-04-28T22:36:39;99010.06;;;12.48;99.01
65280;BME280;51878;55.748;48.742;2023-04-28T22:41:43;98898.19;;;11.71;99.07
65280;BME280;51878;55.748;48.742;2023-04-28T22:46:45;99008.38;;;12.27;100.00
65280;BME280;51878;55.748;48.742;2023-04-28T22:51:47;99006.28;;;12.23;100.00
65280;BME280;51878;55.748;48.742;2023-04-28T22:56:50;98979.09;;;12.03;100.00
65280;BME280;51878;55.748;48.742;2023-04-28T23:01:54;99033.66;;;12.28;100.00
65280;BME280;51878;55.748;48.742;2023-04-28T23:06:56;99014.63;;;12.14;100.00
65280;BME280;51878;55.748;48.742;2023-04-28T23:11:58;99059.81;;;12.22;100.00
65280;BME280;51878;55.748;48.742;2023-04-28T23:17:00;99003.91;;;11.86;100.00
65280;BME280;51878;55.748;48.742;2023-04-28T23:22:05;98953.25;;;11.45;100.00
65280;BME280;51878;55.748;48.742;2023-04-28T23:27:08;99052.47;;;12.03;100.00
65280;BME280;51878;55.748;48.742;2023-04-28T23:32:10;99071.47;;;12.03;100.00
65280;BME280;51878;55.748;48.742;2023-04-28T23:37:13;99054.03;;;11.84;100.00
65280;BME280;51878;55.748;48.742;2023-04-28T23:42:15;99053.38;;;11.75;100.00
65280;BME280;51878;55.748;48.742;2023-04-28T23:47:18;99059.69;;;11.75;100.00
65280;BME280;51878;55.748;48.742;2023-04-28T23:52:20;99067.81;;;11.75;100.00
65280;BME280;51878;55.748;48.742;2023-04-28T23:57:22;98991.13;;;11.12;100.00
